Time;durP1;ratioP1;P1;durP2;ratioP2;P2;SDS_P1;SDS_P2;PMS_P1;PMS_P2;Temp;Humidity;BMP_temperature;BMP_pressure;BME280_temperature;BME280_humidity;BME280_pressure;Samples;Min_cycle;Max_cycle;Signal;HPM_P1;HPM_P2
2021/12/09 00:00:25;;;;;;;69.65;43.83;;;;;;;;;;4839058;29;20045;-75
2021/12/09 00:02:52;;;;;;;72.50;44.63;;;;;;;;;;4838218;29;20041;-76
2021/12/09 00:05:18;;;;;;;68.25;43.35;;;;;;;;;;4840914;29;20498;-75
2021/12/09 00:07:44;;;;;;;100.60;58.80;;;;;;;;;;4841693;29;20034;-75
2021/12/09 00:10:13;;;;;;;66.25;42.05;;;;;;;;;;4842363;29;20065;-75
2021/12/09 00:12:40;;;;;;;87.57;51.47;;;;;;;;;;4837070;29;20033;-76
2021/12/09 00:15:06;;;;;;;75.43;50.08;;;;;;;;;;4824933;29;20046;-75
2021/12/09 00:17:32;;;;;;;88.47;53.88;;;;;;;;;;4823885;29;20083;-75
2021/12/09 00:19:58;;;;;;;60.47;42.95;;;;;;;;;;4823051;29;20509;-75
2021/12/09 00:22:25;;;;;;;78.78;48.75;;;;;;;;;;4823488;29;20438;-76
2021/12/09 00:24:51;;;;;;;63.33;41.20;;;;;;;;;;4836047;29;20034;-75
2021/12/09 00:27:17;;;;;;;67.72;44.00;;;;;;;;;;4834484;29;20656;-75
2021/12/09 00:29:43;;;;;;;105.57;62.17;;;;;;;;;;4842241;29;20073;-75
2021/12/09 00:32:09;;;;;;;81.03;52.22;;;;;;;;;;4842218;29;20034;-75
2021/12/09 00:34:37;;;;;;;99.43;64.15;;;;;;;;;;4841668;29;20042;-75
2021/12/09 00:37:25;;;;;;;64.35;43.40;;;;;;;;;;4842095;29;20029;-75
2021/12/09 00:39:53;;;;;;;69.68;47.20;;;;;;;;;;4841620;29;20034;-76
2021/12/09 00:42:20;;;;;;;77.20;50.47;;;;;;;;;;4841686;29;20465;-76
2021/12/09 00:44:47;;;;;;;71.47;47.88;;;;;;;;;;4840903;29;20045;-76
2021/12/09 00:47:13;;;;;;;67.88;46.78;;;;;;;;;;4841773;29;20029;-76
2021/12/09 00:49:39;;;;;;;78.50;53.15;;;;;;;;;;4841859;29;20066;-75
2021/12/09 00:52:06;;;;;;;68.68;44.47;;;;;;;;;;4841903;29;20041;-76
2021/12/09 00:54:32;;;;;;;71.75;49.13;;;;;;;;;;4829315;29;20091;-75
2021/12/09 00:56:58;;;;;;;66.65;48.88;;;;;;;;;;4823355;29;20034;-76
2021/12/09 00:59:24;;;;;;;68.65;44.97;;;;;;;;;;4828788;29;20616;-75
2021/12/09 01:01:50;;;;;;;62.80;43.28;;;;;;;;;;4823332;29;20035;-75
2021/12/09 01:04:16;;;;;;;58.65;39.53;;;;;;;;;;4836519;29;20384;-76
2021/12/09 01:06:42;;;;;;;78.43;51.83;;;;;;;;;;4859864;29;20049;-76
2021/12/09 01:09:08;;;;;;;77.93;51.53;;;;;;;;;;4854899;29;20026;-75
2021/12/09 01:11:34;;;;;;;83.80;51.53;;;;;;;;;;4841266;29;20053;-75
2021/12/09 01:14:00;;;;;;;86.85;51.85;;;;;;;;;;4840559;29;20069;-76
2021/12/09 01:16:27;;;;;;;64.82;41.28;;;;;;;;;;4840752;29;20422;-76
2021/12/09 01:18:53;;;;;;;69.18;43.47;;;;;;;;;;4841336;29;20074;-75
2021/12/09 01:21:19;;;;;;;57.15;38.70;;;;;;;;;;4824356;29;20544;-76
2021/12/09 01:23:45;;;;;;;79.20;49.90;;;;;;;;;;4833963;29;20034;-76
2021/12/09 01:26:11;;;;;;;57.50;36.50;;;;;;;;;;4832338;29;20046;-75
2021/12/09 01:28:47;;;;;;;58.05;38.97;;;;;;;;;;4821753;29;20030;-76
2021/12/09 01:31:20;;;;;;;62.40;39.80;;;;;;;;;;4833498;29;20069;-75
2021/12/09 01:33:47;;;;;;;72.68;49.00;;;;;;;;;;4840333;29;20054;-75
2021/12/09 01:36:13;;;;;;;81.75;55.03;;;;;;;;;;4840875;29;20052;-76
2021/12/09 01:38:39;;;;;;;61.15;39.75;;;;;;;;;;4840959;29;20087;-76
2021/12/09 01:41:05;;;;;;;57.83;40.45;;;;;;;;;;4847450;29;20710;-75
2021/12/09 01:43:32;;;;;;;65.50;45.00;;;;;;;;;;4859061;29;20094;-75
2021/12/09 01:46:02;;;;;;;66.18;42.58;;;;;;;;;;4854589;29;20668;-75
2021/12/09 01:48:28;;;;;;;50.72;34.90;;;;;;;;;;4828873;29;20037;-76
2021/12/09 01:50:54;;;;;;;63.17;39.90;;;;;;;;;;4840982;29;20034;-75
2021/12/09 01:53:20;;;;;;;74.13;46.83;;;;;;;;;;4839795;29;20034;-75
2021/12/09 01:55:47;;;;;;;80.43;48.95;;;;;;;;;;4841003;29;20038;-76
2021/12/09 01:58:13;;;;;;;77.15;48.47;;;;;;;;;;4840144;29;20121;-75
2021/12/09 02:00:39;;;;;;;84.60;48.10;;;;;;;;;;4835736;29;20422;-76
2021/12/09 02:03:05;;;;;;;94.28;60.05;;;;;;;;;;4829773;29;20046;-75
2021/12/09 02:05:32;;;;;;;98.28;53.67;;;;;;;;;;4839580;29;20037;-75
2021/12/09 02:07:58;;;;;;;84.18;46.45;;;;;;;;;;4825152;29;20400;-75
2021/12/09 02:10:25;;;;;;;76.50;44.55;;;;;;;;;;4828774;29;20105;-75
2021/12/09 02:12:52;;;;;;;79.22;48.72;;;;;;;;;;4829429;29;20788;-75
2021/12/09 02:15:20;;;;;;;77.80;43.97;;;;;;;;;;4829061;29;20389;-75
2021/12/09 02:17:46;;;;;;;69.72;44.38;;;;;;;;;;4826840;29;20038;-75
2021/12/09 02:20:12;;;;;;;103.63;58.28;;;;;;;;;;4821609;29;20070;-75
2021/12/09 02:22:38;;;;;;;70.18;43.38;;;;;;;;;;4821633;29;20197;-75
2021/12/09 02:25:05;;;;;;;64.93;42.00;;;;;;;;;;4822168;29;20077;-76
2021/12/09 02:27:31;;;;;;;65.03;40.20;;;;;;;;;;4835039;29;20038;-75
2021/12/09 02:29:57;;;;;;;101.05;59.42;;;;;;;;;;4840170;29;20052;-75
2021/12/09 02:32:23;;;;;;;68.40;44.58;;;;;;;;;;4839125;29;20068;-75
2021/12/09 02:34:50;;;;;;;50.33;30.92;;;;;;;;;;4839603;29;20045;-75
2021/12/09 02:37:16;;;;;;;48.80;31.48;;;;;;;;;;4838848;29;20048;-75
2021/12/09 02:39:43;;;;;;;52.50;34.05;;;;;;;;;;4834479;29;20042;-76
2021/12/09 02:42:09;;;;;;;53.80;33.58;;;;;;;;;;4834446;29;20030;-76
2021/12/09 02:44:35;;;;;;;62.38;36.83;;;;;;;;;;4821439;29;20087;-76
2021/12/09 02:47:02;;;;;;;49.25;32.70;;;;;;;;;;4821103;29;20035;-76
2021/12/09 02:49:29;;;;;;;55.80;36.17;;;;;;;;;;4834932;29;20124;-75
2021/12/09 02:51:55;;;;;;;66.03;41.40;;;;;;;;;;4839687;29;20070;-75
2021/12/09 02:54:22;;;;;;;49.90;34.22;;;;;;;;;;4839375;29;20046;-76
2021/12/09 02:56:49;;;;;;;48.05;31.38;;;;;;;;;;4839550;29;20040;-75
2021/12/09 02:59:15;;;;;;;50.97;33.72;;;;;;;;;;4834649;29;20851;-75
2021/12/09 03:01:50;;;;;;;45.00;31.20;;;;;;;;;;4821369;29;20042;-75
2021/12/09 03:04:16;;;;;;;55.72;37.42;;;;;;;;;;4838713;29;20426;-75
2021/12/09 03:06:43;;;;;;;40.22;26.63;;;;;;;;;;4839347;29;20052;-76
2021/12/09 03:09:14;;;;;;;39.85;28.45;;;;;;;;;;4838877;29;20025;-75
2021/12/09 03:11:41;;;;;;;41.05;28.30;;;;;;;;;;4839151;29;20081;-75
2021/12/09 03:14:08;;;;;;;36.20;25.80;;;;;;;;;;4839216;29;20519;-76
2021/12/09 03:16:35;;;;;;;43.60;30.38;;;;;;;;;;4839260;29;20048;-76
2021/12/09 03:19:03;;;;;;;45.50;29.92;;;;;;;;;;4839363;29;20038;-76
2021/12/09 03:21:31;;;;;;;45.75;31.20;;;;;;;;;;4823462;29;20065;-75
2021/12/09 03:23:58;;;;;;;47.15;32.55;;;;;;;;;;4839445;29;20040;-76
2021/12/09 03:26:29;;;;;;;48.70;31.20;;;;;;;;;;4839727;29;20038;-75
2021/12/09 03:28:55;;;;;;;43.10;28.38;;;;;;;;;;4839494;29;20385;-75
2021/12/09 03:31:21;;;;;;;46.28;30.52;;;;;;;;;;4839057;29;20034;-75
2021/12/09 03:33:47;;;;;;;38.78;27.48;;;;;;;;;;4821103;29;20030;-75
2021/12/09 03:36:14;;;;;;;43.28;30.10;;;;;;;;;;4820957;29;20046;-75
2021/12/09 03:38:40;;;;;;;69.63;41.38;;;;;;;;;;4835096;29;20109;-76
2021/12/09 03:41:06;;;;;;;44.03;30.02;;;;;;;;;;4839284;29;20042;-75
2021/12/09 03:43:33;;;;;;;39.03;27.45;;;;;;;;;;4838455;29;20044;-76
2021/12/09 03:45:59;;;;;;;44.17;30.77;;;;;;;;;;4839221;29;20388;-75
2021/12/09 03:48:26;;;;;;;42.78;27.83;;;;;;;;;;4828017;29;20035;-75
2021/12/09 03:50:53;;;;;;;44.17;29.25;;;;;;;;;;4821094;29;20525;-75
2021/12/09 03:53:19;;;;;;;43.75;30.20;;;;;;;;;;4835864;29;20040;-75
2021/12/09 03:55:45;;;;;;;46.97;31.20;;;;;;;;;;4833007;29;20084;-75
2021/12/09 03:58:11;;;;;;;51.53;32.80;;;;;;;;;;4826080;29;20063;-76
2021/12/09 04:00:37;;;;;;;53.22;34.05;;;;;;;;;;4838907;29;20136;-75
2021/12/09 04:03:04;;;;;;;58.17;36.80;;;;;;;;;;4834728;29;20057;-75
2021/12/09 04:05:30;;;;;;;61.53;36.05;;;;;;;;;;4820576;29;20077;-75
2021/12/09 04:07:56;;;;;;;40.30;29.13;;;;;;;;;;4820861;29;20051;-75
2021/12/09 04:10:22;;;;;;;60.15;34.80;;;;;;;;;;4838809;29;20089;-75
2021/12/09 04:12:48;;;;;;;50.80;32.90;;;;;;;;;;4838420;29;20034;-75
2021/12/09 04:15:14;;;;;;;48.10;33.22;;;;;;;;;;4830721;29;20041;-75
2021/12/09 04:17:40;;;;;;;55.58;36.45;;;;;;;;;;4838579;29;20056;-75
2021/12/09 04:20:08;;;;;;;67.57;41.92;;;;;;;;;;4837867;29;20110;-76
2021/12/09 04:22:34;;;;;;;68.18;40.17;;;;;;;;;;4838527;29;20065;-76
2021/12/09 04:25:00;;;;;;;62.45;35.15;;;;;;;;;;4838070;29;20076;-75
2021/12/09 04:27:27;;;;;;;53.13;31.75;;;;;;;;;;4838544;29;20500;-76
2021/12/09 04:29:53;;;;;;;66.85;43.25;;;;;;;;;;4836835;29;20042;-76
2021/12/09 04:32:20;;;;;;;66.53;42.25;;;;;;;;;;4820238;29;20037;-76
2021/12/09 04:34:46;;;;;;;51.10;34.70;;;;;;;;;;4820030;29;20517;-76
2021/12/09 04:37:12;;;;;;;45.80;30.23;;;;;;;;;;4836541;29;20109;-75
2021/12/09 04:39:39;;;;;;;61.47;40.65;;;;;;;;;;4833118;29;20143;-76
2021/12/09 04:42:05;;;;;;;48.65;34.10;;;;;;;;;;4828948;29;20041;-76
2021/12/09 04:44:32;;;;;;;50.38;32.35;;;;;;;;;;4838186;29;20069;-75
2021/12/09 04:47:00;;;;;;;42.88;28.17;;;;;;;;;;4830816;29;20038;-76
2021/12/09 04:49:27;;;;;;;70.65;40.10;;;;;;;;;;4832878;29;20049;-75
2021/12/09 04:51:53;;;;;;;48.80;30.83;;;;;;;;;;4841031;29;20056;-75
2021/12/09 04:54:20;;;;;;;43.97;28.65;;;;;;;;;;4841024;29;20091;-75
2021/12/09 04:56:46;;;;;;;57.47;35.72;;;;;;;;;;4841733;29;20041;-76
2021/12/09 04:59:12;;;;;;;53.50;32.92;;;;;;;;;;4841041;29;20049;-75
2021/12/09 05:01:40;;;;;;;58.53;35.90;;;;;;;;;;4841635;29;20026;-75
2021/12/09 05:04:06;;;;;;;43.92;28.92;;;;;;;;;;4841528;29;20430;-76
2021/12/09 05:06:32;;;;;;;76.15;44.38;;;;;;;;;;4840902;29;20129;-75
2021/12/09 05:09:05;;;;;;;64.40;39.60;;;;;;;;;;4841277;29;20037;-75
2021/12/09 05:14:04;;;;;;;61.60;36.92;;;;;;;;;;4841547;29;20045;-75
2021/12/09 05:16:30;;;;;;;62.13;33.80;;;;;;;;;;4840784;29;20045;-75
2021/12/09 05:18:58;;;;;;;49.45;31.63;;;;;;;;;;4841302;29;20046;-76
2021/12/09 05:21:29;;;;;;;74.97;40.85;;;;;;;;;;4838446;29;20573;-75
2021/12/09 05:23:56;;;;;;;89.43;43.72;;;;;;;;;;4832096;29;20392;-76
2021/12/09 05:26:26;;;;;;;59.63;38.72;;;;;;;;;;4840661;29;20125;-75
2021/12/09 05:28:55;;;;;;;55.97;34.90;;;;;;;;;;4841272;29;20034;-75
2021/12/09 05:34:07;;;;;;;53.47;35.60;;;;;;;;;;4841317;29;20440;-75
2021/12/09 05:36:33;;;;;;;62.53;39.00;;;;;;;;;;4840969;29;20029;-76
2021/12/09 05:38:59;;;;;;;56.33;38.97;;;;;;;;;;4825028;29;20046;-75
2021/12/09 05:41:25;;;;;;;58.25;37.20;;;;;;;;;;4822579;29;20117;-75
2021/12/09 05:43:51;;;;;;;56.85;35.83;;;;;;;;;;4835513;29;20061;-75
2021/12/09 05:46:17;;;;;;;55.72;37.75;;;;;;;;;;4840704;29;20432;-75
2021/12/09 05:48:44;;;;;;;57.38;36.40;;;;;;;;;;4839791;29;20045;-75
2021/12/09 05:51:10;;;;;;;54.55;37.25;;;;;;;;;;4841128;29;20034;-76
2021/12/09 05:53:36;;;;;;;68.15;41.63;;;;;;;;;;4839972;29;20483;-76
2021/12/09 05:56:02;;;;;;;62.90;40.05;;;;;;;;;;4841017;29;20501;-76
2021/12/09 05:58:28;;;;;;;80.10;41.03;;;;;;;;;;4839752;29;20034;-76
2021/12/09 06:00:55;;;;;;;90.82;52.60;;;;;;;;;;4836001;29;20769;-75
2021/12/09 06:03:22;;;;;;;50.78;34.17;;;;;;;;;;4821197;29;20042;-75
2021/12/09 06:05:49;;;;;;;60.35;38.40;;;;;;;;;;4824135;29;20775;-75
2021/12/09 06:08:15;;;;;;;48.47;32.90;;;;;;;;;;4840361;29;20058;-75
2021/12/09 06:10:41;;;;;;;56.20;36.25;;;;;;;;;;4840533;29;20103;-75
2021/12/09 06:13:07;;;;;;;59.72;35.47;;;;;;;;;;4840688;29;20175;-75
2021/12/09 06:15:34;;;;;;;57.10;33.15;;;;;;;;;;4835051;29;20138;-76
2021/12/09 06:18:00;;;;;;;64.97;36.63;;;;;;;;;;4836674;29;20512;-75
2021/12/09 06:20:26;;;;;;;44.90;31.00;;;;;;;;;;4836367;29;20111;-75
2021/12/09 06:22:52;;;;;;;50.25;32.75;;;;;;;;;;4837426;29;20177;-75
2021/12/09 06:25:19;;;;;;;69.43;42.78;;;;;;;;;;4833673;29;20529;-76
2021/12/09 06:27:48;;;;;;;80.43;44.38;;;;;;;;;;4839621;29;20028;-75
2021/12/09 06:30:14;;;;;;;59.60;37.88;;;;;;;;;;4839231;29;20041;-75
2021/12/09 06:32:40;;;;;;;51.25;34.78;;;;;;;;;;4839885;29;20851;-76
2021/12/09 06:35:06;;;;;;;59.03;40.22;;;;;;;;;;4839010;29;20141;-76
2021/12/09 06:37:33;;;;;;;74.13;41.47;;;;;;;;;;4830100;29;20034;-76
2021/12/09 06:39:59;;;;;;;77.63;42.40;;;;;;;;;;4836985;29;20135;-76
2021/12/09 06:42:24;;;;;;;65.13;39.72;;;;;;;;;;4832938;29;20030;-76
2021/12/09 06:44:50;;;;;;;62.95;38.42;;;;;;;;;;4831172;29;20038;-75
2021/12/09 06:47:17;;;;;;;82.45;44.65;;;;;;;;;;4822654;29;20076;-76
2021/12/09 06:49:43;;;;;;;70.10;44.20;;;;;;;;;;4837553;29;20432;-75
2021/12/09 06:52:09;;;;;;;107.50;56.95;;;;;;;;;;4838832;29;20034;-76
2021/12/09 06:54:36;;;;;;;97.63;58.45;;;;;;;;;;4829946;29;20134;-76
2021/12/09 06:57:02;;;;;;;71.30;43.60;;;;;;;;;;4826887;29;20125;-76
2021/12/09 06:59:28;;;;;;;62.03;38.90;;;;;;;;;;4835714;29;20102;-76
2021/12/09 07:01:54;;;;;;;64.75;41.67;;;;;;;;;;4832888;29;20030;-75
2021/12/09 07:04:20;;;;;;;72.30;45.10;;;;;;;;;;4820888;29;20405;-75
2021/12/09 07:06:46;;;;;;;62.50;42.22;;;;;;;;;;4831472;29;20034;-75
2021/12/09 07:09:13;;;;;;;65.55;42.53;;;;;;;;;;4830392;29;20049;-76
2021/12/09 07:11:39;;;;;;;65.10;43.55;;;;;;;;;;4835233;29;20126;-76
2021/12/09 07:14:05;;;;;;;81.70;47.38;;;;;;;;;;4831423;29;20030;-75
2021/12/09 07:16:31;;;;;;;84.88;51.10;;;;;;;;;;4829753;29;20045;-76
2021/12/09 07:18:59;;;;;;;100.00;56.85;;;;;;;;;;4832054;29;20049;-75
2021/12/09 07:21:26;;;;;;;123.97;68.18;;;;;;;;;;4830919;29;20045;-75
2021/12/09 07:23:52;;;;;;;87.35;52.58;;;;;;;;;;4832557;29;20042;-76
2021/12/09 07:26:18;;;;;;;98.35;56.33;;;;;;;;;;4835144;29;20085;-75
2021/12/09 07:28:44;;;;;;;80.60;51.05;;;;;;;;;;4830490;29;20075;-76
2021/12/09 07:31:10;;;;;;;101.60;53.65;;;;;;;;;;4824318;29;20125;-76
2021/12/09 07:33:36;;;;;;;85.43;49.55;;;;;;;;;;4826853;29;20034;-75
2021/12/09 07:36:04;;;;;;;113.57;51.58;;;;;;;;;;4825067;29;20386;-76
2021/12/09 07:38:30;;;;;;;85.78;45.28;;;;;;;;;;4838493;29;20803;-75
2021/12/09 07:40:56;;;;;;;78.97;42.72;;;;;;;;;;4838708;29;20046;-76
2021/12/09 07:43:22;;;;;;;92.18;48.55;;;;;;;;;;4838229;29;20037;-75
2021/12/09 07:45:48;;;;;;;77.43;44.05;;;;;;;;;;4838780;29;20050;-75
2021/12/09 07:48:14;;;;;;;91.47;47.33;;;;;;;;;;4837526;29;20047;-75
2021/12/09 07:50:40;;;;;;;67.45;36.40;;;;;;;;;;4829562;29;20034;-75
2021/12/09 07:53:06;;;;;;;72.15;43.17;;;;;;;;;;4821193;29;20042;-75
2021/12/09 07:55:32;;;;;;;67.13;38.65;;;;;;;;;;4836953;29;20050;-76
2021/12/09 07:57:59;;;;;;;69.80;40.53;;;;;;;;;;4831933;29;20049;-76
2021/12/09 08:00:26;;;;;;;58.60;39.72;;;;;;;;;;4830295;29;20053;-76
2021/12/09 08:02:53;;;;;;;86.40;48.28;;;;;;;;;;4834859;29;20038;-76
2021/12/09 08:05:19;;;;;;;73.72;40.88;;;;;;;;;;4822809;29;20125;-76
2021/12/09 08:07:46;;;;;;;75.32;40.88;;;;;;;;;;4838619;29;20186;-75
2021/12/09 08:10:13;;;;;;;68.00;39.13;;;;;;;;;;4832830;29;20053;-75
2021/12/09 08:12:39;;;;;;;80.40;44.60;;;;;;;;;;4838555;29;20030;-75
2021/12/09 08:15:07;;;;;;;73.35;39.45;;;;;;;;;;4830927;29;20085;-75
2021/12/09 08:20:14;;;;;;;53.88;33.70;;;;;;;;;;4825240;29;20453;-75
2021/12/09 08:22:41;;;;;;;64.13;35.58;;;;;;;;;;4822256;29;20034;-76
2021/12/09 08:25:08;;;;;;;57.00;34.65;;;;;;;;;;4837162;29;20781;-76
2021/12/09 08:27:35;;;;;;;110.18;54.55;;;;;;;;;;4826876;29;20022;-75
2021/12/09 08:30:04;;;;;;;66.97;42.42;;;;;;;;;;4836847;29;20125;-75
2021/12/09 08:32:30;;;;;;;74.00;42.85;;;;;;;;;;4830075;29;20026;-76
2021/12/09 08:34:56;;;;;;;60.35;38.80;;;;;;;;;;4823841;29;20046;-76
2021/12/09 08:37:22;;;;;;;59.92;35.35;;;;;;;;;;4837443;29;20041;-75
2021/12/09 08:39:48;;;;;;;56.70;35.65;;;;;;;;;;4841734;29;20076;-76
2021/12/09 08:42:15;;;;;;;87.60;44.92;;;;;;;;;;4839275;29;20038;-76
2021/12/09 08:44:41;;;;;;;71.88;41.78;;;;;;;;;;4840201;29;20046;-76
2021/12/09 08:47:08;;;;;;;60.72;38.58;;;;;;;;;;4823277;29;20030;-75
2021/12/09 08:49:34;;;;;;;55.28;39.75;;;;;;;;;;4827136;29;20045;-75
2021/12/09 08:52:00;;;;;;;47.25;31.17;;;;;;;;;;4829708;29;20030;-75
2021/12/09 08:54:26;;;;;;;45.80;29.48;;;;;;;;;;4835607;29;20046;-75
2021/12/09 08:56:52;;;;;;;46.08;25.98;;;;;;;;;;4835213;29;20111;-76
2021/12/09 08:59:19;;;;;;;52.25;29.40;;;;;;;;;;4833792;29;20054;-76
2021/12/09 09:01:46;;;;;;;34.45;23.00;;;;;;;;;;4835862;29;20030;-76
2021/12/09 09:04:12;;;;;;;44.72;26.88;;;;;;;;;;4832411;29;20056;-76
2021/12/09 09:06:37;;;;;;;45.00;28.08;;;;;;;;;;4829717;29;20042;-76
2021/12/09 09:09:05;;;;;;;40.22;26.77;;;;;;;;;;4826715;29;20488;-76
2021/12/09 09:11:31;;;;;;;48.38;26.25;;;;;;;;;;4837531;29;20022;-75
2021/12/09 09:13:58;;;;;;;50.08;27.95;;;;;;;;;;4823067;29;20058;-76
2021/12/09 09:16:24;;;;;;;52.05;30.25;;;;;;;;;;4827188;29;20037;-75
2021/12/09 09:18:53;;;;;;;54.38;32.92;;;;;;;;;;4841047;29;20053;-75
2021/12/09 09:21:19;;;;;;;50.10;27.08;;;;;;;;;;4836577;29;20065;-75
2021/12/09 09:23:45;;;;;;;65.78;32.28;;;;;;;;;;4840264;29;20792;-76
2021/12/09 09:26:11;;;;;;;53.08;31.98;;;;;;;;;;4841272;29;20142;-75
2021/12/09 09:28:37;;;;;;;59.67;33.33;;;;;;;;;;4839277;29;20034;-76
2021/12/09 09:31:04;;;;;;;53.20;30.30;;;;;;;;;;4837780;29;20034;-76
2021/12/09 09:33:31;;;;;;;52.60;29.13;;;;;;;;;;4834305;29;20057;-75
2021/12/09 09:35:57;;;;;;;48.60;29.75;;;;;;;;;;4825004;29;20054;-75
2021/12/09 09:38:24;;;;;;;43.80;28.17;;;;;;;;;;4834195;29;20533;-76
2021/12/09 09:40:54;;;;;;;46.10;28.73;;;;;;;;;;4829269;29;20045;-75
2021/12/09 09:46:06;;;;;;;45.47;27.92;;;;;;;;;;4822956;29;20057;-76
2021/12/09 09:48:33;;;;;;;50.10;31.88;;;;;;;;;;4829780;29;20117;-76
2021/12/09 09:50:59;;;;;;;40.28;26.50;;;;;;;;;;4827700;29;20045;-75
2021/12/09 09:53:25;;;;;;;38.90;27.05;;;;;;;;;;4840166;29;20112;-75
2021/12/09 09:55:51;;;;;;;44.55;26.92;;;;;;;;;;4830222;29;20055;-76
2021/12/09 09:58:18;;;;;;;43.45;26.67;;;;;;;;;;4838487;29;20037;-76
2021/12/09 10:00:44;;;;;;;47.03;29.17;;;;;;;;;;4829355;29;20427;-76
2021/12/09 10:03:16;;;;;;;37.33;24.63;;;;;;;;;;4821547;29;20800;-75
2021/12/09 10:05:44;;;;;;;;;;;;;;;;;;4831827;29;20082;-75
2021/12/09 10:08:12;;;;;;;35.17;25.65;;;;;;;;;;4831915;29;19920;-76
2021/12/09 10:10:39;;;;;;;38.80;26.58;;;;;;;;;;4822964;29;20042;-76
2021/12/09 10:13:07;;;;;;;46.53;28.67;;;;;;;;;;4829418;29;20030;-75
2021/12/09 10:15:34;;;;;;;39.75;26.15;;;;;;;;;;4835649;29;20473;-75
2021/12/09 10:18:00;;;;;;;37.17;25.60;;;;;;;;;;4829376;29;20033;-75
2021/12/09 10:20:45;;;;;;;42.58;27.52;;;;;;;;;;4836256;29;20585;-76
2021/12/09 10:23:23;;;;;;;45.80;33.22;;;;;;;;;;4830888;29;20073;-76
2021/12/09 10:26:08;;;;;;;42.33;27.98;;;;;;;;;;4838379;29;20044;-75
2021/12/09 10:28:35;;;;;;;31.63;21.85;;;;;;;;;;4838094;29;20026;-77
2021/12/09 10:31:15;;;;;;;38.22;25.88;;;;;;;;;;4839838;29;20042;-77
2021/12/09 10:34:32;;;;;;;37.80;24.27;;;;;;;;;;4840122;29;20551;-76
2021/12/09 10:36:47;;;;;;;37.10;23.92;;;;;;;;;;4839141;29;20054;-78
2021/12/09 10:39:15;;;;;;;31.88;20.80;;;;;;;;;;4839559;29;20041;-75
2021/12/09 10:41:41;;;;;;;30.88;21.65;;;;;;;;;;4835969;29;20038;-75
2021/12/09 10:44:07;;;;;;;35.85;24.10;;;;;;;;;;4829328;29;20389;-75
2021/12/09 10:46:51;;;;;;;38.15;23.70;;;;;;;;;;4821903;29;20045;-75
2021/12/09 10:49:18;;;;;;;36.50;25.05;;;;;;;;;;4839385;29;20046;-75
2021/12/09 10:51:55;;;;;;;34.10;21.90;;;;;;;;;;4830813;29;20686;-75
2021/12/09 10:54:33;;;;;;;37.13;23.02;;;;;;;;;;4821435;29;20073;-75
2021/12/09 10:57:18;;;;;;;36.50;23.70;;;;;;;;;;4823472;29;20061;-75
2021/12/09 10:59:44;;;;;;;32.17;23.73;;;;;;;;;;4836045;29;20062;-75
2021/12/09 11:02:11;;;;;;;41.25;28.58;;;;;;;;;;4833980;29;20042;-77
2021/12/09 11:04:37;;;;;;;36.35;25.05;;;;;;;;;;4839476;29;20113;-78
2021/12/09 11:07:29;;;;;;;30.05;19.45;;;;;;;;;;4833246;29;20049;-76
2021/12/09 11:10:14;;;;;;;33.25;21.90;;;;;;;;;;4836095;29;20081;-77
2021/12/09 11:12:47;;;;;;;33.20;22.40;;;;;;;;;;4825230;29;20083;-77
2021/12/09 11:15:15;;;;;;;33.95;23.60;;;;;;;;;;4821613;29;20042;-77
2021/12/09 11:17:42;;;;;;;33.95;22.90;;;;;;;;;;4829632;29;20103;-75
2021/12/09 11:20:08;;;;;;;28.40;21.15;;;;;;;;;;4837674;29;20401;-75
2021/12/09 11:22:37;;;;;;;31.50;21.50;;;;;;;;;;4836808;29;20108;-77
2021/12/09 11:25:06;;;;;;;33.88;22.70;;;;;;;;;;4838971;29;20480;-77
2021/12/09 11:27:32;;;;;;;26.52;19.42;;;;;;;;;;4828491;29;20057;-77
2021/12/09 11:30:13;;;;;;;27.15;17.50;;;;;;;;;;4835495;29;20042;-77
2021/12/09 11:32:49;;;;;;;25.70;16.55;;;;;;;;;;4838775;29;20034;-77
2021/12/09 11:35:24;;;;;;;23.35;16.38;;;;;;;;;;4838652;29;20082;-77
2021/12/09 11:40:56;;;;;;;26.58;18.80;;;;;;;;;;4820797;29;20038;-77
2021/12/09 11:43:23;;;;;;;25.48;17.95;;;;;;;;;;4834633;29;20472;-78
2021/12/09 11:45:51;;;;;;;26.75;18.00;;;;;;;;;;4821953;29;20042;-76
2021/12/09 11:48:17;;;;;;;29.90;19.08;;;;;;;;;;4822523;29;20038;-77
2021/12/09 11:50:45;;;;;;;25.52;18.70;;;;;;;;;;4826371;29;20030;-77
2021/12/09 11:53:13;;;;;;;25.98;19.25;;;;;;;;;;4833843;29;20038;-77
2021/12/09 11:55:47;;;;;;;27.90;19.08;;;;;;;;;;4835122;29;20042;-77
2021/12/09 11:58:31;;;;;;;28.40;18.08;;;;;;;;;;4821192;29;20031;-77
2021/12/09 12:14:53;;;;;;;24.83;16.48;;;;;;;;;;4828660;29;20058;-78
2021/12/09 12:19:52;;;;;;;15.48;9.00;;;;;;;;;;4831369;29;20061;-76
2021/12/09 12:29:47;;;;;;;16.88;10.60;;;;;;;;;;4839990;29;20445;-77
2021/12/09 12:37:43;;;;;;;15.60;10.60;;;;;;;;;;4840752;29;20122;-77
2021/12/09 12:40:11;;;;;;;19.33;12.63;;;;;;;;;;4842039;29;20113;-77
2021/12/09 12:42:47;;;;;;;20.23;11.95;;;;;;;;;;4839888;29;20057;-77
2021/12/09 12:45:21;;;;;;;23.00;15.18;;;;;;;;;;4830470;29;20069;-77
2021/12/09 12:47:56;;;;;;;20.05;14.90;;;;;;;;;;4840851;29;20064;-77
2021/12/09 12:50:22;;;;;;;25.33;17.90;;;;;;;;;;4837391;29;20083;-77
2021/12/09 12:52:49;;;;;;;23.70;16.35;;;;;;;;;;4832738;29;20082;-77
2021/12/09 12:55:20;;;;;;;21.33;15.25;;;;;;;;;;4835481;29;20042;-77
2021/12/09 12:57:50;;;;;;;23.83;16.10;;;;;;;;;;4833893;29;20022;-77
2021/12/09 13:00:23;;;;;;;27.83;16.85;;;;;;;;;;4840025;29;20473;-77
2021/12/09 13:03:03;;;;;;;23.88;17.10;;;;;;;;;;4833972;29;20056;-77
2021/12/09 13:08:27;;;;;;;22.63;15.75;;;;;;;;;;4834165;29;20110;-77
2021/12/09 13:13:36;;;;;;;25.77;17.13;;;;;;;;;;4838120;29;20034;-77
2021/12/09 13:16:03;;;;;;;30.13;21.30;;;;;;;;;;4841788;29;20392;-77
2021/12/09 13:18:47;;;;;;;26.77;16.33;;;;;;;;;;4830575;29;20029;-77
2021/12/09 13:21:32;;;;;;;23.25;15.75;;;;;;;;;;4840520;29;20084;-77
2021/12/09 13:24:17;;;;;;;20.83;13.82;;;;;;;;;;4839756;29;20045;-76
2021/12/09 13:27:02;;;;;;;28.85;17.58;;;;;;;;;;4839394;29;20726;-77
2021/12/09 13:29:44;;;;;;;25.67;18.17;;;;;;;;;;4837886;29;20040;-76
2021/12/09 13:32:40;;;;;;;18.70;12.57;;;;;;;;;;4832122;29;20023;-77
2021/12/09 13:35:14;;;;;;;24.52;16.20;;;;;;;;;;4836293;29;20038;-77
2021/12/09 13:38:06;;;;;;;22.42;13.77;;;;;;;;;;4836569;29;20053;-77
2021/12/09 13:46:15;;;;;;;18.38;12.88;;;;;;;;;;4835980;29;20056;-77
2021/12/09 13:48:48;;;;;;;24.60;14.15;;;;;;;;;;4837056;29;20113;-77
2021/12/09 13:51:53;;;;;;;22.95;15.27;;;;;;;;;;4839562;29;20089;-77
2021/12/09 13:54:28;;;;;;;24.80;17.00;;;;;;;;;;4830704;29;20042;-77
2021/12/09 13:56:56;;;;;;;27.23;16.63;;;;;;;;;;4822810;29;20038;-76
2021/12/09 13:59:23;;;;;;;24.15;15.93;;;;;;;;;;4825395;29;20037;-76
2021/12/09 14:01:50;;;;;;;27.95;17.70;;;;;;;;;;4840258;29;20090;-76
2021/12/09 14:04:20;;;;;;;29.27;19.00;;;;;;;;;;4839833;29;20093;-76
2021/12/09 14:07:04;;;;;;;27.52;19.77;;;;;;;;;;4838528;29;20029;-76
2021/12/09 14:09:31;;;;;;;27.63;20.45;;;;;;;;;;4823147;29;20404;-76
2021/12/09 14:11:59;;;;;;;27.67;17.52;;;;;;;;;;4836801;29;20133;-76
2021/12/09 14:14:36;;;;;;;36.55;21.85;;;;;;;;;;4833478;29;20481;-76
2021/12/09 14:17:04;;;;;;;30.30;19.45;;;;;;;;;;4827946;29;20049;-77
2021/12/09 14:22:01;;;;;;;29.85;18.77;;;;;;;;;;4840175;29;20430;-77
2021/12/09 14:24:31;;;;;;;28.23;16.67;;;;;;;;;;4839180;29;20475;-77
2021/12/09 14:26:57;;;;;;;24.80;13.25;;;;;;;;;;4829387;29;20705;-77
2021/12/09 14:29:25;;;;;;;14.75;8.43;;;;;;;;;;4839790;29;20110;-76
2021/12/09 14:31:53;;;;;;;15.60;10.23;;;;;;;;;;4839319;29;20528;-76
2021/12/09 14:34:20;;;;;;;16.38;9.50;;;;;;;;;;4833613;29;20042;-76
2021/12/09 14:36:46;;;;;;;22.20;13.05;;;;;;;;;;4824739;29;20038;-77
2021/12/09 14:39:14;;;;;;;23.52;13.20;;;;;;;;;;4824632;29;20380;-77
2021/12/09 14:41:41;;;;;;;23.98;14.57;;;;;;;;;;4839545;29;20108;-76
2021/12/09 14:44:09;;;;;;;22.77;13.38;;;;;;;;;;4840050;29;20026;-77
2021/12/09 14:46:37;;;;;;;19.50;10.35;;;;;;;;;;4837350;29;20037;-77
2021/12/09 14:49:23;;;;;;;16.25;7.15;;;;;;;;;;4833016;29;20033;-77
2021/12/09 14:51:52;;;;;;;14.02;7.50;;;;;;;;;;4832666;29;20127;-77
2021/12/09 14:54:19;;;;;;;11.93;6.53;;;;;;;;;;4820851;29;20034;-77
2021/12/09 14:56:48;;;;;;;14.85;7.60;;;;;;;;;;4833173;29;20541;-76
2021/12/09 14:59:17;;;;;;;16.30;6.97;;;;;;;;;;4838828;29;20037;-77
2021/12/09 15:01:44;;;;;;;12.38;6.57;;;;;;;;;;4831013;29;20046;-76
2021/12/09 15:04:18;;;;;;;11.65;6.32;;;;;;;;;;4828402;29;20409;-77
2021/12/09 15:06:54;;;;;;;11.20;6.78;;;;;;;;;;4839494;29;20038;-76
2021/12/09 15:09:20;;;;;;;15.10;6.85;;;;;;;;;;4838728;29;20026;-77
2021/12/09 15:11:54;;;;;;;12.70;5.32;;;;;;;;;;4822197;29;20065;-77
2021/12/09 15:14:22;;;;;;;16.23;10.20;;;;;;;;;;4826326;29;20041;-76
2021/12/09 15:17:02;;;;;;;16.50;8.65;;;;;;;;;;4839089;29;20041;-76
2021/12/09 15:19:28;;;;;;;11.35;7.45;;;;;;;;;;4831857;29;20120;-76
2021/12/09 15:22:17;;;;;;;19.00;8.95;;;;;;;;;;4832141;29;20046;-77